Time;durP1;ratioP1;P1;durP2;ratioP2;P2;SDS_P1;SDS_P2;PMS_P1;PMS_P2;Temp;Humidity;BMP_temperature;BMP_pressure;BME280_temperature;BME280_humidity;BME280_pressure;Samples;Min_cycle;Max_cycle;Signal;HPM_P1;HPM_P2
2023/07/10 00:01:04;;;;;;;5.90;4.37;;;;;;;20.35;100.00;101037.53;4964540;28;20081;-79
2023/07/10 00:03:32;;;;;;;7.82;4.53;;;;;;;20.39;100.00;101031.13;4959040;28;20042;-79
2023/07/10 00:05:59;;;;;;;6.97;4.95;;;;;;;20.42;100.00;101039.00;4974759;28;20041;-79
2023/07/10 00:08:26;;;;;;;5.88;4.50;;;;;;;20.43;100.00;101032.75;4960193;28;20051;-80
2023/07/10 00:10:54;;;;;;;6.22;4.15;;;;;;;20.42;100.00;101029.22;4974816;28;20051;-82
2023/07/10 00:13:21;;;;;;;8.63;4.22;;;;;;;20.40;100.00;101017.78;4951617;28;20050;-79
2023/07/10 00:15:50;;;;;;;8.82;4.22;;;;;;;20.44;100.00;101019.38;4930760;28;20836;-81
2023/07/10 00:18:20;;;;;;;11.52;4.50;;;;;;;20.45;100.00;101013.09;4963944;28;20051;-79
2023/07/10 00:20:47;;;;;;;5.43;4.30;;;;;;;20.46;100.00;101009.53;4972698;28;20055;-82
2023/07/10 00:23:15;;;;;;;7.97;3.95;;;;;;;20.42;100.00;100989.31;4947565;28;20098;-82
2023/07/10 00:25:43;;;;;;;5.13;4.00;;;;;;;20.37;100.00;100995.78;4955024;28;20039;-81
2023/07/10 00:28:20;;;;;;;4.72;4.07;;;;;;;20.33;100.00;101000.38;4950999;28;20070;-80
2023/07/10 00:30:49;;;;;;;6.35;5.28;;;;;;;20.31;100.00;101015.50;4966672;28;20091;-82
2023/07/10 00:33:18;;;;;;;4.75;3.78;;;;;;;20.28;100.00;101007.69;4978408;28;20822;-79
2023/07/10 00:35:45;;;;;;;7.03;4.95;;;;;;;20.29;100.00;101017.41;4974647;28;20521;-79
2023/07/10 00:38:22;;;;;;;5.40;4.50;;;;;;;20.32;100.00;101025.22;4950486;28;20046;-81
2023/07/10 00:40:49;;;;;;;5.00;4.53;;;;;;;20.32;100.00;101030.53;4955773;28;20098;-82
2023/07/10 00:44:03;;;;;;;4.72;4.32;;;;;;;20.28;100.00;101026.28;4938294;28;20510;-86
2023/07/10 00:46:46;;;;;;;7.70;4.82;;;;;;;20.21;100.00;101033.69;4945563;28;20474;-79
2023/07/10 00:49:24;;;;;;;6.25;4.65;;;;;;;20.19;100.00;101027.56;4943833;28;20047;-77
2023/07/10 00:52:25;;;;;;;5.85;5.20;;;;;;;20.14;100.00;101022.44;4960919;28;20103;-81
2023/07/10 00:55:03;;;;;;;7.97;4.65;;;;;;;20.13;100.00;101019.88;4953393;28;20062;-84
2023/07/10 00:57:43;;;;;;;3.88;3.47;;;;;;;20.11;100.00;101022.56;4953936;28;20046;-79
2023/07/10 01:00:23;;;;;;;8.32;5.30;;;;;;;20.13;100.00;101020.72;4956116;28;20051;-79
2023/07/10 01:02:50;;;;;;;5.82;4.47;;;;;;;20.17;100.00;101022.31;4960690;28;20059;-79
2023/07/10 01:05:19;;;;;;;8.70;4.75;;;;;;;20.25;100.00;101026.44;4976902;28;20118;-82
2023/07/10 01:07:52;;;;;;;7.55;4.90;;;;;;;20.35;100.00;101030.44;4978734;28;20138;-82
2023/07/10 01:10:19;;;;;;;9.52;4.65;;;;;;;20.38;100.00;101027.63;4965125;28;20095;-86
2023/07/10 01:12:47;;;;;;;6.50;4.10;;;;;;;20.35;100.00;101027.75;4973026;28;20034;-78
2023/07/10 01:15:15;;;;;;;5.68;4.20;;;;;;;20.31;100.00;101010.19;4955339;28;20138;-78
2023/07/10 01:17:42;;;;;;;9.60;4.53;;;;;;;20.26;100.00;101002.44;4942046;28;20137;-78
2023/07/10 01:20:32;;;;;;;6.25;4.85;;;;;;;20.20;100.00;101008.00;4954166;28;20043;-78
2023/07/10 01:22:59;;;;;;;5.70;4.88;;;;;;;20.17;100.00;101017.00;4933348;29;20058;-78
2023/07/10 01:25:30;;;;;;;5.47;4.82;;;;;;;20.16;100.00;101025.88;4939541;29;20043;-81
2023/07/10 01:27:56;;;;;;;8.02;4.88;;;;;;;20.17;100.00;101027.63;4918770;29;20083;-79
2023/07/10 01:30:36;;;;;;;7.18;4.45;;;;;;;20.20;100.00;101031.09;4941937;28;20046;-78
2023/07/10 01:33:03;;;;;;;6.97;5.00;;;;;;;20.25;100.00;101048.56;4939727;29;20035;-81
2023/07/10 01:35:35;;;;;;;7.65;5.90;;;;;;;20.34;100.00;101060.59;4932268;29;20434;-78
2023/07/10 01:38:07;;;;;;;7.97;5.68;;;;;;;20.38;100.00;101050.69;4947863;29;20244;-80
2023/07/10 01:40:40;;;;;;;6.20;4.45;;;;;;;20.44;100.00;101050.41;4958924;28;20541;-79
2023/07/10 01:43:13;;;;;;;8.48;6.40;;;;;;;20.46;100.00;101052.06;4951181;28;20088;-81
2023/07/10 01:45:49;;;;;;;5.85;4.78;;;;;;;20.42;100.00;101049.63;4937759;28;20035;-84
2023/07/10 01:48:30;;;;;;;9.85;6.03;;;;;;;20.43;100.00;101048.69;4954463;28;20035;-81
2023/07/10 01:50:57;;;;;;;6.30;4.38;;;;;;;20.44;100.00;101050.41;4920953;29;20047;-80
2023/07/10 01:53:24;;;;;;;7.47;5.20;;;;;;;20.46;100.00;101048.56;4941670;28;20070;-78
2023/07/10 01:55:51;;;;;;;7.13;5.28;;;;;;;20.47;100.00;101048.47;4961200;28;20026;-79
2023/07/10 01:58:17;;;;;;;5.80;5.20;;;;;;;20.46;100.00;101051.22;4955323;28;20366;-79
2023/07/10 02:00:44;;;;;;;6.50;4.72;;;;;;;20.44;100.00;101063.69;4949012;28;20118;-78
2023/07/10 02:03:10;;;;;;;6.57;5.47;;;;;;;20.41;100.00;101058.53;4931496;29;20048;-79
2023/07/10 02:05:37;;;;;;;6.07;5.15;;;;;;;20.40;100.00;101070.09;4932432;28;20031;-80
2023/07/10 02:08:03;;;;;;;7.25;5.18;;;;;;;20.41;100.00;101067.34;4941588;29;20114;-78
2023/07/10 02:10:30;;;;;;;10.38;5.35;;;;;;;20.44;100.00;101064.59;4945796;29;20051;-79
2023/07/10 02:12:56;;;;;;;7.57;5.80;;;;;;;20.49;100.00;101070.56;4922739;28;20031;-82
2023/07/10 02:15:22;;;;;;;6.07;4.95;;;;;;;20.54;100.00;101072.16;4950207;28;20057;-78
2023/07/10 02:17:49;;;;;;;7.50;5.32;;;;;;;20.60;100.00;101072.75;4963979;28;20039;-78
2023/07/10 02:20:16;;;;;;;7.20;5.55;;;;;;;20.62;100.00;101046.94;4944542;28;20043;-78
2023/07/10 02:22:43;;;;;;;9.20;5.47;;;;;;;20.63;100.00;101011.41;4965172;28;20113;-82
2023/07/10 02:25:10;;;;;;;9.85;5.88;;;;;;;20.69;100.00;101023.59;4963649;28;20035;-78
2023/07/10 02:27:36;;;;;;;10.40;6.05;;;;;;;20.65;100.00;101012.22;4957389;28;20073;-79
2023/07/10 02:30:03;;;;;;;8.88;5.65;;;;;;;20.52;100.00;100995.09;4977797;28;20050;-79
2023/07/10 02:32:30;;;;;;;7.18;6.00;;;;;;;20.36;100.00;101002.03;4958483;28;20057;-79
2023/07/10 02:34:56;;;;;;;5.38;4.88;;;;;;;20.22;100.00;101011.50;4967300;28;20040;-80
2023/07/10 02:37:23;;;;;;;10.93;5.72;;;;;;;20.11;100.00;101011.09;4974700;28;20097;-77
2023/07/10 02:39:49;;;;;;;7.05;6.25;;;;;;;20.02;100.00;101007.00;4956375;28;20046;-80
2023/07/10 02:42:16;;;;;;;9.77;6.28;;;;;;;19.94;100.00;101019.78;4973412;28;20051;-77
2023/07/10 02:44:42;;;;;;;8.43;5.72;;;;;;;19.89;100.00;101019.09;4952408;28;20042;-77
2023/07/10 02:47:08;;;;;;;6.03;5.18;;;;;;;19.91;100.00;101035.84;4973061;28;20046;-79
2023/07/10 02:49:34;;;;;;;6.15;5.55;;;;;;;19.95;100.00;101038.31;4960588;28;20477;-77
2023/07/10 02:52:01;;;;;;;7.47;5.88;;;;;;;20.05;100.00;101057.41;4979107;28;20038;-80
2023/07/10 02:54:27;;;;;;;7.10;6.40;;;;;;;20.14;100.00;101064.09;4955731;28;20043;-77
2023/07/10 02:56:54;;;;;;;10.90;7.88;;;;;;;20.19;100.00;101055.94;4970550;28;20054;-83
2023/07/10 02:59:20;;;;;;;9.80;6.25;;;;;;;20.13;100.00;101049.94;4942090;28;20050;-79
2023/07/10 03:01:47;;;;;;;8.15;6.72;;;;;;;20.09;100.00;101053.66;4959009;28;20049;-78
2023/07/10 03:04:14;;;;;;;10.40;6.20;;;;;;;20.03;100.00;101051.28;4972103;28;20038;-78
2023/07/10 03:06:40;;;;;;;10.40;6.00;;;;;;;19.97;100.00;101049.75;4973448;28;20038;-81
2023/07/10 03:09:07;;;;;;;6.03;5.47;;;;;;;19.94;100.00;101047.19;4956520;28;20039;-78
2023/07/10 03:11:33;;;;;;;9.05;5.80;;;;;;;19.96;100.00;101055.97;4963786;28;20039;-78
2023/07/10 03:14:01;;;;;;;8.32;5.38;;;;;;;19.91;100.00;101049.13;4969194;28;20469;-79
2023/07/10 03:16:27;;;;;;;8.20;5.50;;;;;;;19.88;100.00;101050.13;4956803;28;20085;-82
2023/07/10 03:18:54;;;;;;;15.82;6.18;;;;;;;19.88;100.00;101058.09;4966859;28;20038;-78
2023/07/10 03:21:20;;;;;;;6.93;5.00;;;;;;;19.86;100.00;101046.66;4962967;28;20054;-78
2023/07/10 03:23:51;;;;;;;6.15;5.05;;;;;;;19.86;100.00;101051.13;4965600;28;20035;-79
2023/07/10 03:26:18;;;;;;;12.07;5.75;;;;;;;19.87;100.00;101047.50;4953958;28;20389;-78
2023/07/10 03:28:45;;;;;;;10.45;6.00;;;;;;;19.87;100.00;101045.75;4982305;28;20050;-78
2023/07/10 03:31:11;;;;;;;8.93;5.60;;;;;;;19.88;100.00;101043.94;4940679;28;20478;-80
2023/07/10 03:33:38;;;;;;;8.82;5.40;;;;;;;19.89;100.00;101040.34;4941429;28;20050;-78
2023/07/10 03:36:08;;;;;;;8.73;6.03;;;;;;;19.91;100.00;101036.72;4937597;29;20785;-78
2023/07/10 03:38:34;;;;;;;6.30;5.68;;;;;;;19.93;100.00;101047.28;4968790;28;20046;-84
2023/07/10 03:41:01;;;;;;;8.52;5.30;;;;;;;19.95;100.00;101056.91;4935650;28;20807;-78
2023/07/10 03:43:29;;;;;;;9.40;5.78;;;;;;;19.94;100.00;101052.50;4957145;28;20041;-78
2023/07/10 03:45:56;;;;;;;7.65;5.63;;;;;;;19.99;100.00;101055.84;4956581;28;20074;-80
2023/07/10 03:48:23;;;;;;;11.00;5.97;;;;;;;20.01;100.00;101042.47;4940798;28;20409;-81
2023/07/10 03:50:50;;;;;;;5.85;4.38;;;;;;;19.98;100.00;101040.81;4956806;28;20470;-78
2023/07/10 03:53:16;;;;;;;12.98;5.90;;;;;;;19.93;100.00;101037.53;4940998;28;20133;-78
2023/07/10 03:55:51;;;;;;;13.15;5.95;;;;;;;19.86;100.00;101041.34;4957232;28;20070;-77
2023/07/10 03:58:25;;;;;;;12.27;5.35;;;;;;;19.80;100.00;101046.88;4957337;28;20041;-80
2023/07/10 04:00:53;;;;;;;11.95;5.75;;;;;;;19.77;100.00;101053.19;4932681;28;20043;-78
2023/07/10 04:03:23;;;;;;;11.95;5.93;;;;;;;19.81;100.00;101052.16;4947106;28;20042;-84
2023/07/10 04:05:52;;;;;;;11.60;5.90;;;;;;;19.82;100.00;101048.56;4951178;28;20051;-81
2023/07/10 04:12:27;;;;;;;9.85;6.22;;;;;;;19.79;100.00;101032.75;4974821;28;20026;-78
2023/07/10 04:14:54;;;;;;;8.55;6.30;;;;;;;19.72;100.00;101033.91;4988760;28;20053;-78
2023/07/10 04:17:20;;;;;;;9.50;6.70;;;;;;;19.66;100.00;101042.16;4946766;28;20049;-78
2023/07/10 04:19:50;;;;;;;11.20;5.80;;;;;;;19.61;100.00;101049.44;4956170;28;20042;-77
2023/07/10 04:22:16;;;;;;;10.45;6.30;;;;;;;19.55;100.00;101047.88;4955813;28;20486;-77
2023/07/10 04:24:44;;;;;;;8.40;6.28;;;;;;;19.58;100.00;101050.44;4950074;28;20045;-79
2023/07/10 04:27:10;;;;;;;12.30;6.82;;;;;;;19.61;100.00;101049.44;4940610;28;20038;-78
2023/07/10 04:29:37;;;;;;;7.97;5.63;;;;;;;19.66;100.00;101042.16;4971589;28;20049;-77
2023/07/10 04:32:09;;;;;;;11.95;6.40;;;;;;;19.75;100.00;101039.13;4944505;28;20071;-78
2023/07/10 04:34:36;;;;;;;16.67;6.50;;;;;;;19.86;100.00;101046.66;4944951;28;20113;-80
2023/07/10 04:37:04;;;;;;;12.75;8.27;;;;;;;19.91;100.00;101044.69;4967525;28;20046;-78
2023/07/10 04:39:31;;;;;;;13.57;8.40;;;;;;;20.04;100.00;101050.34;4960195;28;20035;-78
2023/07/10 04:41:57;;;;;;;17.08;8.35;;;;;;;20.13;100.00;101046.44;4961574;28;20035;-78
2023/07/10 04:44:24;;;;;;;13.63;7.03;;;;;;;20.12;100.00;101044.72;4967797;28;20042;-78
2023/07/10 04:46:51;;;;;;;11.23;7.05;;;;;;;20.13;100.00;101046.44;4958227;28;20075;-78
2023/07/10 04:49:19;;;;;;;14.25;7.80;;;;;;;20.21;100.00;101044.31;4959498;28;20050;-78
2023/07/10 04:51:46;;;;;;;11.15;7.35;;;;;;;20.26;100.00;101041.44;4955543;28;20075;-78
2023/07/10 04:54:12;;;;;;;14.02;8.23;;;;;;;20.33;100.00;101043.75;4956747;28;20042;-78
2023/07/10 04:56:38;;;;;;;15.30;8.55;;;;;;;20.41;100.00;101037.25;4947024;28;20042;-78
2023/07/10 04:59:05;;;;;;;12.60;9.35;;;;;;;20.42;100.00;101037.19;4976384;28;20037;-78
2023/07/10 05:01:33;;;;;;;14.82;8.43;;;;;;;20.49;100.00;101037.78;4948381;29;20050;-78
2023/07/10 05:04:00;;;;;;;18.23;9.43;;;;;;;20.52;100.00;101039.44;4950333;28;20047;-80
2023/07/10 05:06:27;;;;;;;15.55;8.82;;;;;;;20.46;100.00;101041.44;4966981;28;20040;-81
2023/07/10 05:08:59;;;;;;;18.05;11.73;;;;;;;20.42;100.00;101041.66;4975811;28;20039;-79
2023/07/10 05:11:29;;;;;;;17.58;10.65;;;;;;;20.38;100.00;101051.56;4973695;28;20058;-83
2023/07/10 05:13:56;;;;;;;16.98;10.73;;;;;;;20.30;100.00;101046.56;4949959;28;20031;-79
2023/07/10 05:16:24;;;;;;;19.05;12.93;;;;;;;20.24;100.00;101053.94;4965763;28;20121;-79
2023/07/10 05:18:50;;;;;;;23.20;14.05;;;;;;;20.17;100.00;101054.19;4959203;28;20101;-78
2023/07/10 05:21:17;;;;;;;21.23;14.85;;;;;;;20.15;100.00;101069.38;4975135;28;20054;-82
2023/07/10 05:23:45;;;;;;;16.20;13.60;;;;;;;20.11;100.00;101065.09;4976099;28;20043;-78
2023/07/10 05:26:16;;;;;;;22.20;14.35;;;;;;;20.09;100.00;101074.94;4942866;28;20045;-79
2023/07/10 05:28:42;;;;;;;18.02;13.55;;;;;;;20.11;100.00;101069.56;4957373;28;20043;-79
2023/07/10 05:31:12;;;;;;;19.90;13.70;;;;;;;20.10;100.00;101073.13;4974616;28;20425;-79
2023/07/10 05:33:40;;;;;;;18.05;12.70;;;;;;;20.14;100.00;101074.72;4978299;28;20050;-82
2023/07/10 05:36:11;;;;;;;14.90;12.35;;;;;;;20.19;100.00;101071.88;4942491;28;20125;-78
2023/07/10 05:38:38;;;;;;;16.83;12.07;;;;;;;20.24;100.00;101092.00;4959402;28;20071;-78
2023/07/10 05:41:04;;;;;;;18.88;12.75;;;;;;;20.20;100.00;101087.75;4971780;28;20035;-78
2023/07/10 05:43:33;;;;;;;18.75;13.27;;;;;;;20.08;100.00;101109.56;4958186;28;20050;-77
2023/07/10 05:46:00;;;;;;;18.95;12.85;;;;;;;20.04;100.00;101106.16;4957720;28;20110;-79
2023/07/10 05:48:27;;;;;;;16.27;12.05;;;;;;;20.03;100.00;101116.84;4957281;28;20133;-84
2023/07/10 05:50:54;;;;;;;20.70;12.55;;;;;;;19.96;100.00;101124.22;4957836;28;20117;-82
2023/07/10 05:53:23;;;;;;;19.45;12.50;;;;;;;19.84;100.00;101120.22;4954714;28;20047;-85
2023/07/10 05:55:54;;;;;;;14.02;11.65;;;;;;;19.80;100.00;101126.56;4954055;28;20038;-82
2023/07/10 05:58:24;;;;;;;15.55;11.48;;;;;;;19.81;100.00;101130.97;4965592;28;20123;-79
2023/07/10 06:00:54;;;;;;;14.75;11.43;;;;;;;19.80;100.00;101123.91;4970004;28;20047;-80
2023/07/10 06:03:20;;;;;;;18.50;13.18;;;;;;;19.78;100.00;101125.78;4956391;28;20466;-82
2023/07/10 06:05:58;;;;;;;15.70;12.98;;;;;;;19.76;100.00;101120.50;4954919;29;20058;-80
2023/07/10 06:08:26;;;;;;;18.95;13.70;;;;;;;19.74;100.00;101129.50;4964101;28;20051;-83
2023/07/10 06:10:53;;;;;;;17.10;13.73;;;;;;;19.69;100.00;101124.34;4958468;28;20493;-77
2023/07/10 06:13:21;;;;;;;16.10;13.40;;;;;;;19.67;100.00;101118.22;4979638;28;20430;-84
2023/07/10 06:15:52;;;;;;;16.38;13.32;;;;;;;19.66;100.00;101127.13;4964284;28;20047;-79
2023/07/10 06:18:19;;;;;;;18.10;13.35;;;;;;;19.78;100.00;101133.75;4959391;28;20031;-79
2023/07/10 06:20:58;;;;;;;15.35;11.57;;;;;;;19.98;100.00;101135.63;4980043;28;20054;-78
2023/07/10 06:23:27;;;;;;;18.35;12.35;;;;;;;20.12;100.00;101135.06;4958178;28;20042;-80
2023/07/10 06:25:55;;;;;;;13.20;11.65;;;;;;;20.21;100.00;101139.13;4975552;28;20050;-79
2023/07/10 06:28:23;;;;;;;15.80;12.45;;;;;;;20.17;100.00;101144.56;4975947;28;20042;-79
2023/07/10 06:31:08;;;;;;;20.42;13.88;;;;;;;20.18;100.00;101161.41;4959486;28;20041;-80
2023/07/10 06:33:36;;;;;;;17.70;12.93;;;;;;;20.11;100.00;101160.75;4951279;28;20053;-79
2023/07/10 06:36:04;;;;;;;15.75;13.13;;;;;;;19.98;100.00;101165.72;4974861;28;20442;-78
2023/07/10 06:38:32;;;;;;;18.95;14.07;;;;;;;19.86;100.00;101166.22;4975247;28;20046;-81
2023/07/10 06:41:00;;;;;;;17.58;14.38;;;;;;;19.83;100.00;101169.00;4959249;28;20034;-80
2023/07/10 06:43:26;;;;;;;19.67;13.95;;;;;;;19.92;100.00;101179.25;4967688;28;20073;-85
2023/07/10 06:45:56;;;;;;;16.42;14.02;;;;;;;20.00;100.00;101185.13;4975250;28;20031;-79
2023/07/10 06:48:22;;;;;;;23.50;14.55;;;;;;;19.96;100.00;101180.00;4958476;28;20046;-79
2023/07/10 06:50:54;;;;;;;22.80;14.60;;;;;;;19.88;100.00;101182.97;4958549;28;20038;-79
2023/07/10 06:53:21;;;;;;;17.33;14.40;;;;;;;19.76;100.00;101180.75;4960196;28;20442;-79
2023/07/10 06:55:56;;;;;;;16.85;13.27;;;;;;;19.74;100.00;101185.28;4972663;28;20126;-80
2023/07/10 07:02:26;;;;;;;20.00;14.10;;;;;;;19.69;100.00;101174.81;4957323;29;20055;-80
2023/07/10 07:04:53;;;;;;;19.65;13.35;;;;;;;19.63;100.00;101173.28;4946901;28;20038;-79
2023/07/10 07:07:19;;;;;;;22.73;15.38;;;;;;;19.67;100.00;101177.53;4958990;28;20035;-79
2023/07/10 07:09:50;;;;;;;15.68;13.18;;;;;;;19.65;100.00;101167.91;4974429;28;20038;-80
2023/07/10 07:12:16;;;;;;;18.02;13.55;;;;;;;19.61;100.00;101167.16;4958720;28;20047;-79
2023/07/10 07:14:43;;;;;;;16.50;12.52;;;;;;;19.66;100.00;101159.88;4962693;28;20057;-80
2023/07/10 07:18:01;;;;;;;19.85;13.73;;;;;;;19.73;100.00;101168.44;4977547;28;20351;-79
2023/07/10 07:20:27;;;;;;;14.07;11.50;;;;;;;19.82;100.00;101167.28;4962289;28;20434;-79
2023/07/10 07:22:55;;;;;;;15.60;11.50;;;;;;;19.81;100.00;101169.03;4974105;28;20054;-79
2023/07/10 07:25:22;;;;;;;14.40;10.73;;;;;;;19.88;100.00;101184.75;4974894;28;20105;-80
2023/07/10 07:27:48;;;;;;;16.13;11.90;;;;;;;19.98;100.00;101178.16;4973236;28;20034;-79
2023/07/10 07:30:16;;;;;;;15.23;11.52;;;;;;;20.07;100.00;101176.91;4971248;28;20047;-79
2023/07/10 07:32:44;;;;;;;14.55;11.55;;;;;;;20.13;100.00;101179.34;4974806;28;20039;-78
2023/07/10 07:35:11;;;;;;;13.07;11.13;;;;;;;20.22;100.00;101178.06;4972514;28;20042;-78
2023/07/10 07:37:38;;;;;;;13.82;10.80;;;;;;;20.24;100.00;101190.38;4955961;28;20031;-80
2023/07/10 07:40:06;;;;;;;14.07;10.95;;;;;;;20.23;100.00;101190.44;4968618;28;20042;-79
2023/07/10 07:42:33;;;;;;;15.45;12.88;;;;;;;20.16;100.00;101193.34;4973553;28;20054;-78
2023/07/10 07:44:59;;;;;;;19.33;12.98;;;;;;;20.07;100.00;101198.19;4948817;28;20049;-79
2023/07/10 07:47:29;;;;;;;16.98;12.82;;;;;;;19.98;100.00;101202.91;4966639;28;20394;-79
2023/07/10 07:49:56;;;;;;;15.80;12.50;;;;;;;19.96;100.00;101199.47;4961763;28;20042;-78
2023/07/10 07:52:22;;;;;;;18.42;13.23;;;;;;;19.94;100.00;101203.13;4941612;28;20046;-80
2023/07/10 07:54:51;;;;;;;15.23;13.10;;;;;;;19.88;100.00;101206.00;4954461;28;20054;-86
2023/07/10 07:57:17;;;;;;;16.17;11.95;;;;;;;19.83;100.00;101207.06;4975762;28;20073;-79
2023/07/10 07:59:45;;;;;;;18.10;13.23;;;;;;;19.79;100.00;101210.72;4937500;29;20048;-79
2023/07/10 08:02:12;;;;;;;18.48;13.73;;;;;;;19.82;100.00;101223.91;4937203;29;20113;-80
2023/07/10 08:04:38;;;;;;;16.08;11.18;;;;;;;20.02;100.00;101218.75;4974757;28;20043;-80
2023/07/10 08:07:05;;;;;;;15.02;11.60;;;;;;;20.36;100.00;101218.25;4958994;28;20050;-78
2023/07/10 08:09:31;;;;;;;13.20;10.02;;;;;;;20.55;100.00;101212.19;4961547;28;20035;-85
2023/07/10 08:11:58;;;;;;;12.70;10.73;;;;;;;20.85;100.00;101220.69;4955145;28;20057;-86
2023/07/10 08:14:24;;;;;;;12.68;10.50;;;;;;;20.93;100.00;101225.69;4946196;28;20046;-87
2023/07/10 08:16:51;;;;;;;12.32;10.18;;;;;;;20.99;100.00;101223.59;4947184;28;20043;-82
2023/07/10 08:19:17;;;;;;;12.15;10.75;;;;;;;20.85;100.00;101230.47;4974832;28;20047;-79
2023/07/10 08:21:44;;;;;;;12.13;9.50;;;;;;;20.64;100.00;101238.41;4969919;28;20058;-79
2023/07/10 08:24:10;;;;;;;12.20;10.88;;;;;;;20.46;100.00;101226.72;4975465;28;20409;-82
2023/07/10 08:26:36;;;;;;;11.85;10.05;;;;;;;20.27;100.00;101229.25;4945014;28;20324;-80
2023/07/10 08:29:34;;;;;;;16.02;11.20;;;;;;;20.21;100.00;101234.81;4960336;28;20046;-78
2023/07/10 08:32:01;;;;;;;12.07;9.70;;;;;;;20.47;100.00;101226.66;4953236;28;20046;-80
2023/07/10 08:34:31;;;;;;;14.88;11.02;;;;;;;21.12;100.00;101226.59;4975918;28;20039;-80
2023/07/10 08:36:58;;;;;;;13.63;9.27;;;;;;;21.81;100.00;101225.28;4973867;28;20039;-80
2023/07/10 08:39:25;;;;;;;12.50;9.10;;;;;;;22.41;98.52;101223.34;4960361;28;20491;-80
2023/07/10 08:41:59;;;;;;;13.75;8.25;;;;;;;22.71;95.34;101228.09;4985022;28;20089;-81
2023/07/10 08:44:33;;;;;;;11.93;8.27;;;;;;;22.53;95.59;101228.09;4975074;28;20097;-85
2023/07/10 08:47:10;;;;;;;11.13;7.90;;;;;;;22.31;96.11;101229.09;4968612;28;20167;-80
2023/07/10 08:49:53;;;;;;;9.93;6.90;;;;;;;21.96;98.06;101233.50;4945116;28;20422;-85
2023/07/10 08:52:35;;;;;;;8.13;7.32;;;;;;;21.63;99.97;101243.00;4961208;28;20039;-79
2023/07/10 08:55:03;;;;;;;8.40;7.40;;;;;;;21.54;100.00;101235.44;4969977;28;20045;-79
2023/07/10 08:57:35;;;;;;;11.25;7.50;;;;;;;21.79;100.00;101227.16;4949629;29;20047;-77
2023/07/10 09:00:10;;;;;;;10.90;7.10;;;;;;;21.86;98.65;101230.38;4960534;28;20466;-82
2023/07/10 09:02:45;;;;;;;9.63;7.00;;;;;;;21.83;98.42;101235.88;4969978;28;20047;-79
2023/07/10 09:05:33;;;;;;;9.07;7.07;;;;;;;21.73;98.75;101243.44;4967422;28;20043;-80
2023/07/10 09:08:06;;;;;;;6.78;6.18;;;;;;;21.59;99.70;101245.84;4951824;28;20561;-82
2023/07/10 09:10:45;;;;;;;;;;;;;;;21.41;99.93;101242.22;4971180;28;20791;-82
2023/07/10 09:13:19;;;;;;;13.32;8.43;;;;;;;21.31;100.00;101253.28;4955150;28;20403;-82
2023/07/10 09:16:09;;;;;;;;;;;;;;;21.29;100.00;101252.47;4958757;28;20039;-79
2023/07/10 09:18:46;;;;;;;13.20;8.48;;;;;;;22.32;96.75;101235.31;4978673;28;19924;-79
2023/07/10 09:21:25;;;;;;;10.77;8.00;;;;;;;23.77;89.43;101243.03;4974226;28;20082;-80
2023/07/10 09:23:52;;;;;;;11.57;6.93;;;;;;;25.01;82.75;101244.88;4958827;28;20062;-80
2023/07/10 09:26:23;;;;;;;7.45;6.50;;;;;;;25.70;78.27;101244.28;4962963;28;20090;-79
2023/07/10 09:29:22;;;;;;;9.90;6.57;;;;;;;26.50;76.77;101243.59;4941620;29;20056;-79
2023/07/10 09:32:11;;;;;;;8.45;6.20;;;;;;;25.98;75.21;101245.16;4950441;28;20129;-81
2023/07/10 09:34:50;;;;;;;6.68;5.50;;;;;;;25.55;78.59;101257.69;4958940;28;20047;-79
2023/07/10 09:37:23;;;;;;;6.88;5.85;;;;;;;25.83;76.36;101255.94;4974781;28;20046;-79
2023/07/10 09:39:50;;;;;;;8.85;6.97;;;;;;;25.98;75.40;101251.38;4980421;28;20045;-79
2023/07/10 09:42:27;;;;;;;8.80;5.97;;;;;;;25.65;75.60;101254.41;4965902;28;20801;-80
2023/07/10 09:44:56;;;;;;;7.95;6.28;;;;;;;25.12;77.89;101260.28;4948173;28;20043;-79
2023/07/10 09:47:23;;;;;;;11.35;6.80;;;;;;;24.71;79.42;101258.28;4958782;28;20046;-79
2023/07/10 09:49:56;;;;;;;7.40;6.70;;;;;;;23.99;82.00;101264.13;4971903;28;20047;-78
2023/07/10 09:52:40;;;;;;;7.55;6.40;;;;;;;23.26;85.38;101269.81;4967881;28;20051;-81
2023/07/10 09:55:16;;;;;;;8.40;5.60;;;;;;;23.25;85.45;101271.59;4957608;28;20038;-82
2023/07/10 09:58:00;;;;;;;11.63;7.30;;;;;;;23.73;84.62;101269.06;4940815;28;20035;-81
2023/07/10 10:00:30;;;;;;;8.75;6.43;;;;;;;24.08;82.41;101268.94;4971319;28;20098;-79
2023/07/10 10:03:14;;;;;;;7.80;6.22;;;;;;;23.60;83.70;101276.03;4973844;28;20122;-79
2023/07/10 10:05:42;;;;;;;10.63;6.82;;;;;;;23.26;85.58;101275.16;4961599;28;20046;-79
2023/07/10 10:08:21;;;;;;;6.88;5.15;;;;;;;24.10;82.48;101276.88;4974156;28;20045;-79
2023/07/10 10:11:08;;;;;;;5.78;5.13;;;;;;;25.15;76.78;101265.47;4967130;28;20050;-79
2023/07/10 10:13:56;;;;;;;6.07;4.88;;;;;;;26.32;72.81;101265.34;4957843;28;20046;-80
2023/07/10 10:16:36;;;;;;;8.85;4.90;;;;;;;27.47;67.90;101269.25;4958426;28;20470;-82
2023/07/10 10:19:18;;;;;;;6.63;4.82;;;;;;;27.45;67.66;101268.47;4973509;28;20482;-80
2023/07/10 10:21:44;;;;;;;5.78;4.38;;;;;;;28.55;65.60;101282.06;4939025;29;20466;-80
2023/07/10 10:24:13;;;;;;;5.90;4.13;;;;;;;29.39;61.65;101284.69;4946368;28;20061;-79
2023/07/10 10:27:27;;;;;;;5.47;4.50;;;;;;;29.99;58.24;101282.63;4974767;28;20034;-82
2023/07/10 10:30:38;;;;;;;4.97;3.75;;;;;;;29.88;54.73;101281.78;4945940;28;20811;-79
2023/07/10 10:33:27;;;;;;;6.50;4.32;;;;;;;29.97;54.10;101290.00;4930438;29;20039;-80
2023/07/10 10:36:21;;;;;;;5.38;3.83;;;;;;;29.47;52.72;101298.44;4952336;28;20133;-81
2023/07/10 10:38:59;;;;;;;5.53;4.25;;;;;;;29.13;54.31;101284.88;4952313;28;20034;-80
2023/07/10 10:41:46;;;;;;;5.28;3.85;;;;;;;29.02;52.06;101287.53;4946413;28;20607;-79
2023/07/10 10:44:41;;;;;;;4.65;4.13;;;;;;;28.50;53.92;101278.88;4949171;28;20038;-82
2023/07/10 10:47:41;;;;;;;6.30;3.25;;;;;;;29.89;49.59;101284.34;4950419;28;20045;-85
2023/07/10 10:50:46;;;;;;;2.97;2.78;;;;;;;31.28;46.25;101283.59;4948436;28;20043;-79
2023/07/10 10:53:27;;;;;;;4.03;2.83;;;;;;;31.63;44.10;101279.66;4948420;28;20054;-80
2023/07/10 10:56:18;;;;;;;6.97;3.00;;;;;;;32.19;42.77;101279.25;4949780;28;20035;-81
2023/07/10 10:59:17;;;;;;;3.10;2.80;;;;;;;32.93;41.21;101278.75;4940721;28;20050;-81
2023/07/10 11:02:26;;;;;;;3.03;2.75;;;;;;;33.51;38.81;101286.91;4953593;28;20037;-80
2023/07/10 11:05:39;;;;;;;5.43;2.35;;;;;;;34.69;36.47;101287.03;4954446;28;20524;-81
2023/07/10 11:08:16;;;;;;;3.05;2.75;;;;;;;34.08;36.73;101284.91;4951702;28;20059;-85
2023/07/10 11:10:44;;;;;;;3.28;2.70;;;;;;;33.62;39.47;101284.84;4949389;28;20039;-81
2023/07/10 11:13:31;;;;;;;8.43;2.50;;;;;;;33.97;36.92;101285.97;4955129;28;20081;-83
2023/07/10 11:15:58;;;;;;;4.05;2.25;;;;;;;35.31;34.49;101299.78;4963810;28;20039;-80
2023/07/10 11:18:25;;;;;;;3.38;1.60;;;;;;;35.75;33.19;101295.06;4959544;28;20045;-80
2023/07/10 11:20:52;;;;;;;3.53;1.50;;;;;;;35.13;34.10;101291.66;4973612;28;20104;-80
2023/07/10 11:23:43;;;;;;;1.75;1.65;;;;;;;33.05;36.01;101293.00;4967021;28;20035;-80
2023/07/10 11:26:21;;;;;;;2.17;2.00;;;;;;;31.53;39.44;101302.25;4958324;28;20486;-82
2023/07/10 11:29:02;;;;;;;2.00;1.90;;;;;;;30.10;42.93;101303.31;4969033;28;20041;-81
2023/07/10 11:31:31;;;;;;;2.70;1.92;;;;;;;29.90;43.32;101298.72;4955084;28;20035;-82
2023/07/10 11:34:07;;;;;;;4.50;1.95;;;;;;;29.79;43.38;101302.22;4968364;28;20098;-81
2023/07/10 11:36:40;;;;;;;1.65;1.55;;;;;;;30.18;43.70;101302.69;4971028;28;20046;-81
2023/07/10 11:39:06;;;;;;;2.10;2.00;;;;;;;30.71;42.60;101304.66;4955852;28;20038;-82
2023/07/10 11:41:56;;;;;;;2.42;2.20;;;;;;;30.53;42.96;101298.94;4975459;28;20035;-82
2023/07/10 11:44:28;;;;;;;2.22;2.03;;;;;;;29.44;44.32;101306.78;4971264;28;20042;-80